Holland, Nebraska
Current Conditions -  °F | °C
As of 1:54 PM on Thursday 30 Oct 2014 (Local Time) from KLNK Reporting Station
Clear Clear  
Wind Chill: 64°   Ceiling: Unl
Heat Index: 64°   Visibility: 10mi
Dew Point: 38°   Wind: 23mph
Humidity: 38%   Direction: 330°NNW
Pressure: 30.11"   Gusts: 32mph
Location:  40.6166°N, 96.617°W
Report Text: KLNK 301854Z 33020G28KT 10SM CLR 18/03 A3011 RMK AO2 PK WND 32028/1845 SLP198 T01780033
Loading
Personal Weather Stations






























Interactive Weather Map
Tropical Storm Tracking
New forecast layout! Learn more

10-Day Weather Forecast

Advertisements
Track Severe Weather on mobile